createdAt,value
2018-06-17T00:01:25.334Z,7.77
2018-06-17T00:03:53.476Z,8.57
2018-06-17T00:06:21.548Z,5.93
2018-06-17T00:08:49.715Z,6.83
2018-06-17T00:11:17.814Z,7.10
2018-06-17T00:13:46.035Z,6.57
2018-06-17T00:16:14.539Z,6.17
2018-06-17T00:18:42.752Z,5.87
2018-06-17T00:21:10.973Z,6.27
2018-06-17T00:23:39.161Z,6.37
2018-06-17T00:26:07.316Z,7.00
2018-06-17T00:28:35.508Z,7.20
2018-06-17T00:31:03.683Z,6.90
2018-06-17T00:33:31.793Z,6.03
2018-06-17T00:35:59.954Z,6.70
2018-06-17T00:38:28.087Z,6.17
2018-06-17T00:40:56.217Z,6.07
2018-06-17T00:43:24.389Z,6.13
2018-06-17T00:45:52.570Z,6.10
2018-06-17T00:48:20.674Z,7.17
2018-06-17T00:50:48.760Z,8.90
2018-06-17T00:53:16.879Z,7.10
2018-06-17T00:55:45.482Z,7.10
2018-06-17T00:58:13.571Z,8.00
2018-06-17T01:00:41.785Z,8.00
2018-06-17T01:03:09.886Z,7.70
2018-06-17T01:05:38.016Z,8.63
2018-06-17T01:08:06.305Z,7.43
2018-06-17T01:10:34.430Z,7.33
2018-06-17T01:13:02.543Z,8.00
2018-06-17T01:15:30.908Z,7.03
2018-06-17T01:17:59.598Z,9.33
2018-06-17T01:20:27.779Z,8.70
2018-06-17T01:22:56.027Z,9.07
2018-06-17T01:25:24.144Z,9.87
2018-06-17T01:27:52.287Z,8.73
2018-06-17T01:30:20.354Z,9.17
2018-06-17T01:32:49.120Z,8.60
2018-06-17T01:35:17.219Z,9.17
2018-06-17T01:37:45.377Z,7.43
2018-06-17T01:40:13.623Z,8.47
2018-06-17T01:42:41.811Z,8.63
2018-06-17T01:45:09.890Z,9.10
2018-06-17T01:47:37.981Z,9.97
2018-06-17T01:50:06.153Z,9.03
2018-06-17T01:52:34.419Z,9.30
2018-06-17T01:55:02.599Z,9.17
2018-06-17T01:57:30.775Z,9.27
2018-06-17T01:59:58.889Z,8.80
2018-06-17T02:02:27.027Z,9.07
2018-06-17T02:05:00.826Z,8.17
2018-06-17T02:07:34.551Z,8.83
2018-06-17T02:10:08.239Z,8.40
2018-06-17T02:12:36.395Z,8.68
2018-06-17T02:15:04.646Z,8.40
2018-06-17T02:17:32.809Z,9.53
2018-06-17T02:20:00.976Z,8.90
2018-06-17T02:22:29.000Z,8.57
2018-06-17T02:24:57.194Z,8.97
2018-06-17T02:27:25.344Z,8.67
2018-06-17T02:29:54.028Z,7.73
2018-06-17T02:32:22.129Z,5.70
2018-06-17T02:34:50.273Z,5.07
2018-06-17T02:37:18.552Z,4.00
2018-06-17T02:39:46.722Z,4.67
2018-06-17T02:42:14.858Z,4.00
2018-06-17T02:44:42.971Z,3.07
2018-06-17T02:47:16.745Z,3.10
2018-06-17T02:49:47.915Z,3.70
2018-06-17T02:52:21.591Z,3.10
2018-06-17T02:54:49.696Z,2.67
2018-06-17T02:57:18.951Z,3.10
2018-06-17T02:59:47.353Z,2.80
2018-06-17T03:02:15.804Z,3.20
2018-06-17T03:04:44.016Z,2.70
2018-06-17T03:07:12.173Z,3.43
2018-06-17T03:09:40.531Z,4.20
2018-06-17T03:12:08.793Z,3.23
2018-06-17T03:14:40.883Z,3.97
2018-06-17T03:17:09.076Z,3.70
2018-06-17T03:19:37.203Z,3.30
2018-06-17T03:22:05.569Z,3.60
2018-06-17T03:24:39.448Z,3.60
2018-06-17T03:27:13.305Z,2.97
2018-06-17T03:29:47.128Z,3.47
2018-06-17T03:32:20.893Z,3.10
2018-06-17T03:34:54.722Z,3.17
2018-06-17T03:37:22.919Z,2.90
2018-06-17T03:39:51.093Z,3.50
2018-06-17T03:42:19.241Z,3.33
2018-06-17T03:44:47.338Z,3.80
2018-06-17T03:47:15.483Z,3.27
2018-06-17T03:49:43.590Z,4.50
2018-06-17T03:52:11.689Z,4.27
2018-06-17T03:54:39.834Z,3.80
2018-06-17T03:57:07.988Z,3.40
2018-06-17T03:59:36.106Z,4.47
2018-06-17T04:02:04.297Z,4.27
2018-06-17T04:04:38.255Z,4.10
2018-06-17T04:07:06.500Z,3.60
2018-06-17T04:09:34.615Z,3.50
2018-06-17T04:12:03.169Z,4.10
2018-06-17T04:14:31.328Z,3.53
2018-06-17T04:17:05.005Z,4.23
2018-06-17T04:19:33.113Z,4.50
2018-06-17T04:22:01.294Z,4.20
2018-06-17T04:24:29.378Z,3.27
2018-06-17T04:26:57.520Z,4.10
2018-06-17T04:29:25.671Z,4.10
2018-06-17T04:31:53.806Z,4.17
2018-06-17T04:34:21.965Z,3.90
2018-06-17T04:36:50.014Z,4.70
2018-06-17T04:39:18.164Z,4.77
2018-06-17T04:41:46.251Z,3.97
2018-06-17T04:44:14.346Z,4.00
2018-06-17T04:46:42.564Z,4.07
2018-06-17T04:49:10.845Z,3.73
2018-06-17T04:51:38.994Z,4.07
2018-06-17T04:54:07.449Z,3.93
2018-06-17T04:56:35.514Z,5.73
2018-06-17T04:59:03.682Z,4.40
2018-06-17T05:01:31.883Z,3.70
2018-06-17T05:04:00.033Z,3.60
2018-06-17T05:06:28.226Z,4.30
2018-06-17T05:08:56.375Z,3.30
2018-06-17T05:11:24.457Z,4.13
2018-06-17T05:13:52.668Z,3.90
2018-06-17T05:16:20.845Z,4.03
2018-06-17T05:18:48.965Z,3.80
2018-06-17T05:21:17.100Z,3.80
2018-06-17T05:23:45.296Z,3.60
2018-06-17T05:26:13.518Z,3.80
2018-06-17T05:28:41.741Z,4.20
2018-06-17T05:31:10.445Z,3.93
2018-06-17T05:33:38.614Z,3.70
2018-06-17T05:36:06.743Z,4.30
2018-06-17T05:38:34.954Z,4.30
2018-06-17T05:41:03.100Z,4.07
2018-06-17T05:43:31.198Z,3.30
2018-06-17T05:45:59.395Z,4.47
2018-06-17T05:48:27.625Z,4.00
2018-06-17T05:50:56.010Z,4.27
2018-06-17T05:53:24.074Z,3.67
2018-06-17T05:55:52.151Z,3.23
2018-06-17T05:58:20.266Z,3.10
2018-06-17T06:00:48.399Z,2.90
2018-06-17T06:03:16.547Z,3.37
2018-06-17T06:05:44.669Z,3.13
2018-06-17T06:08:13.142Z,3.73
2018-06-17T06:10:41.517Z,3.50
2018-06-17T06:13:09.898Z,2.37
2018-06-17T06:15:38.050Z,3.47
2018-06-17T06:18:06.253Z,3.40
2018-06-17T06:20:34.730Z,3.63
2018-06-17T06:23:02.864Z,3.20
2018-06-17T06:25:30.945Z,3.30
2018-06-17T06:27:59.044Z,3.47
2018-06-17T06:30:27.196Z,3.10
2018-06-17T06:32:55.335Z,3.10
2018-06-17T06:35:23.423Z,2.90
2018-06-17T06:37:51.702Z,3.07
2018-06-17T06:40:19.868Z,3.50
2018-06-17T06:42:48.045Z,3.93
2018-06-17T06:45:16.729Z,2.50
2018-06-17T06:47:44.819Z,3.33
2018-06-17T06:50:13.106Z,2.90
2018-06-17T06:52:41.373Z,2.40
2018-06-17T06:55:09.570Z,2.80
2018-06-17T06:57:37.671Z,1.90
2018-06-17T07:00:05.945Z,2.77
2018-06-17T07:02:51.293Z,2.53
2018-06-17T07:05:36.682Z,2.77
2018-06-17T07:08:21.754Z,2.93
2018-06-17T07:10:49.937Z,3.07
2018-06-17T07:13:18.769Z,3.43
2018-06-17T07:16:04.047Z,2.60
2018-06-17T07:18:34.695Z,3.20
2018-06-17T07:21:03.142Z,2.63
2018-06-17T07:23:31.435Z,2.80
2018-06-17T07:26:45.875Z,3.07
2018-06-17T07:29:33.399Z,3.03
2018-06-17T07:32:01.567Z,2.97
2018-06-17T07:34:29.703Z,2.60
2018-06-17T07:36:57.889Z,2.57
2018-06-17T07:41:36.925Z,3.07
2018-06-17T07:44:05.459Z,3.07
2018-06-17T07:46:33.690Z,3.40
2018-06-17T07:49:45.412Z,3.63
2018-06-17T07:52:31.994Z,3.53
2018-06-17T07:55:00.177Z,3.10
2018-06-17T07:57:30.512Z,3.43
2018-06-17T07:59:58.710Z,3.27
2018-06-17T08:02:26.875Z,3.10
2018-06-17T08:04:55.176Z,2.90
2018-06-17T08:07:23.723Z,3.00
2018-06-17T08:09:52.072Z,3.10
2018-06-17T08:12:20.367Z,2.73
2018-06-17T08:14:48.664Z,3.10
2018-06-17T08:17:17.286Z,2.97
2018-06-17T08:19:45.829Z,3.00
2018-06-17T08:22:14.127Z,2.33
2018-06-17T08:24:42.404Z,2.70
2018-06-17T08:27:10.742Z,3.00
2018-06-17T08:29:38.904Z,2.33
2018-06-17T08:32:07.204Z,2.27
2018-06-17T08:34:35.480Z,2.70
2018-06-17T08:37:06.914Z,2.57
2018-06-17T08:39:35.195Z,1.80
2018-06-17T08:42:03.935Z,2.90
2018-06-17T08:44:32.247Z,1.90
2018-06-17T08:47:00.525Z,1.53
2018-06-17T08:49:28.912Z,1.70
2018-06-17T08:51:57.169Z,1.90
2018-06-17T08:54:25.454Z,1.90
2018-06-17T08:56:54.131Z,1.67
2018-06-17T08:59:22.829Z,2.20
2018-06-17T09:01:51.306Z,2.17
2018-06-17T09:04:19.640Z,2.03
2018-06-17T09:06:47.775Z,2.23
2018-06-17T09:09:16.020Z,1.77
2018-06-17T09:11:44.249Z,2.00
2018-06-17T09:14:12.540Z,1.90
2018-06-17T09:16:40.962Z,1.10
2018-06-17T09:19:12.172Z,1.00
2018-06-17T09:21:40.656Z,1.10
2018-06-17T09:24:09.382Z,1.00
2018-06-17T09:26:38.046Z,1.10
2018-06-17T09:29:06.384Z,1.20
2018-06-17T09:31:34.623Z,1.43
2018-06-17T09:34:02.963Z,1.30
2018-06-17T09:36:31.412Z,1.60
2018-06-17T09:38:59.730Z,1.67
2018-06-17T09:41:29.347Z,1.77
2018-06-17T09:43:57.834Z,1.40
2018-06-17T09:46:26.916Z,1.90
2018-06-17T09:48:56.103Z,1.47
2018-06-17T09:51:24.951Z,1.53
2018-06-17T09:53:53.244Z,1.63
2018-06-17T09:56:21.574Z,1.50
2018-06-17T09:58:49.978Z,1.40
2018-06-17T10:01:18.437Z,1.40
2018-06-17T10:03:46.926Z,1.17
2018-06-17T10:06:16.991Z,1.33
2018-06-17T10:08:45.532Z,2.53
2018-06-17T10:11:14.085Z,2.03
2018-06-17T10:13:44.155Z,1.53
2018-06-17T10:16:13.449Z,1.77
2018-06-17T10:18:42.406Z,1.60
2018-06-17T10:21:10.985Z,1.70
2018-06-17T10:23:39.275Z,1.30
2018-06-17T10:26:07.777Z,1.57
2018-06-17T10:28:36.236Z,1.60
2018-06-17T10:31:05.609Z,2.03
2018-06-17T10:33:35.618Z,1.37
2018-06-17T10:36:03.974Z,1.60
2018-06-17T10:38:32.239Z,1.63
2018-06-17T10:41:01.974Z,1.60
2018-06-17T10:43:31.790Z,1.70
2018-06-17T10:46:00.087Z,1.57
2018-06-17T10:48:28.436Z,2.07
2018-06-17T10:50:57.007Z,2.10
2018-06-17T10:53:25.515Z,1.77
2018-06-17T10:55:54.005Z,2.20
2018-06-17T10:58:22.313Z,2.63
2018-06-17T11:00:50.726Z,1.97
2018-06-17T11:03:19.056Z,1.90
2018-06-17T11:05:47.407Z,1.83
2018-06-17T11:08:15.691Z,2.00
2018-06-17T11:10:44.098Z,2.50
2018-06-17T11:13:12.485Z,2.10
2018-06-17T11:15:40.886Z,1.97
2018-06-17T11:18:09.250Z,1.70
2018-06-17T11:20:40.619Z,1.73
2018-06-17T11:23:09.113Z,1.73
2018-06-17T11:25:37.476Z,1.80
2018-06-17T11:28:05.919Z,1.77
2018-06-17T11:30:34.505Z,1.93
2018-06-17T11:33:03.405Z,2.60
2018-06-17T11:35:31.820Z,2.17
2018-06-17T11:38:00.165Z,1.70
2018-06-17T11:40:28.620Z,2.23
2018-06-17T11:42:56.923Z,1.73
2018-06-17T11:45:25.155Z,1.70
2018-06-17T11:47:53.490Z,1.40
2018-06-17T11:50:21.926Z,2.50
2018-06-17T11:52:50.263Z,2.30
2018-06-17T11:55:18.608Z,2.27
2018-06-17T11:57:46.987Z,2.20
2018-06-17T12:00:15.353Z,2.57
2018-06-17T12:02:43.996Z,1.50
2018-06-17T12:05:12.501Z,1.97
2018-06-17T12:07:40.820Z,2.47
2018-06-17T12:10:09.300Z,2.00
2018-06-17T12:12:38.387Z,1.23
2018-06-17T12:15:06.716Z,1.80
2018-06-17T12:17:35.261Z,1.50
2018-06-17T12:20:03.670Z,1.80
2018-06-17T12:22:31.981Z,2.37
2018-06-17T12:25:00.604Z,2.13
2018-06-17T12:27:28.964Z,2.00
2018-06-17T12:29:57.224Z,2.07
2018-06-17T12:32:25.997Z,2.13
2018-06-17T12:34:54.437Z,1.70
2018-06-17T12:37:22.828Z,1.80
2018-06-17T12:39:51.366Z,2.40
2018-06-17T12:42:19.865Z,2.37
2018-06-17T12:44:48.419Z,2.20
2018-06-17T12:47:16.703Z,1.60
2018-06-17T12:49:45.090Z,2.20
2018-06-17T12:52:13.407Z,2.00
2018-06-17T12:54:41.887Z,1.80
2018-06-17T12:57:10.191Z,1.60
2018-06-17T12:59:39.032Z,3.97
2018-06-17T13:02:07.258Z,2.00
2018-06-17T13:04:35.506Z,1.80
2018-06-17T13:07:03.837Z,1.83
2018-06-17T13:09:32.152Z,1.77
2018-06-17T13:12:00.446Z,1.87
2018-06-17T13:14:28.859Z,1.77
2018-06-17T13:16:57.025Z,2.77
2018-06-17T13:19:25.262Z,2.90
2018-06-17T13:21:53.706Z,2.00
2018-06-17T13:24:22.217Z,2.03
2018-06-17T13:26:50.618Z,2.10
2018-06-17T13:29:18.828Z,2.60
2018-06-17T13:31:47.150Z,2.17
2018-06-17T13:34:15.556Z,2.50
2018-06-17T13:36:44.045Z,2.53
2018-06-17T13:39:12.320Z,2.13
2018-06-17T13:41:40.964Z,2.20
2018-06-17T13:44:09.230Z,2.90
2018-06-17T13:46:37.514Z,3.07
2018-06-17T13:49:05.915Z,3.00
2018-06-17T13:51:34.318Z,2.90
2018-06-17T13:54:02.707Z,3.13
2018-06-17T13:56:31.026Z,3.20
2018-06-17T13:58:59.351Z,2.40
2018-06-17T14:01:27.597Z,3.77
2018-06-17T14:03:55.912Z,3.40
2018-06-17T14:06:24.306Z,3.40
2018-06-17T14:08:52.651Z,2.97
2018-06-17T14:11:20.883Z,3.00
2018-06-17T14:13:49.374Z,2.57
2018-06-17T14:16:17.741Z,2.20
2018-06-17T14:18:46.120Z,3.30
2018-06-17T14:21:14.414Z,2.80
2018-06-17T14:23:42.898Z,2.90
2018-06-17T14:26:11.445Z,3.10
2018-06-17T14:28:39.860Z,3.50
2018-06-17T14:31:08.465Z,2.20
2018-06-17T14:33:36.733Z,2.77
2018-06-17T14:36:05.328Z,2.83
2018-06-17T14:38:33.812Z,2.93
2018-06-17T14:41:07.815Z,3.83
2018-06-17T14:43:41.803Z,2.63
2018-06-17T14:46:15.707Z,2.73
2018-06-17T14:48:50.246Z,2.20
2018-06-17T14:51:24.398Z,2.50
2018-06-17T14:53:52.694Z,3.00
2018-06-17T14:56:21.206Z,3.10
2018-06-17T14:58:50.081Z,3.03
2018-06-17T15:01:18.498Z,3.10
2018-06-17T15:03:46.864Z,2.37
2018-06-17T15:06:15.286Z,3.10
2018-06-17T15:08:44.380Z,1.60
2018-06-17T15:11:13.212Z,1.97
2018-06-17T15:13:41.679Z,2.60
2018-06-17T15:16:10.116Z,2.57
2018-06-17T15:18:38.474Z,2.57
2018-06-17T15:21:06.713Z,2.10
2018-06-17T15:23:35.369Z,2.27
2018-06-17T15:26:03.847Z,2.10
2018-06-17T15:28:32.161Z,2.00
2018-06-17T15:31:06.027Z,2.30
2018-06-17T15:33:39.812Z,2.23
2018-06-17T15:36:13.573Z,2.80
2018-06-17T15:38:47.423Z,2.27
2018-06-17T15:41:21.417Z,2.13
2018-06-17T15:43:49.682Z,1.47
2018-06-17T15:46:17.931Z,1.80
2018-06-17T15:48:46.210Z,1.80
2018-06-17T15:51:14.630Z,2.00
2018-06-17T15:53:44.026Z,1.63
2018-06-17T15:56:12.389Z,2.03
2018-06-17T15:58:40.871Z,2.33
2018-06-17T16:01:09.173Z,1.77
2018-06-17T16:03:37.361Z,3.30
2018-06-17T16:06:06.327Z,2.10
2018-06-17T16:08:34.677Z,1.50
2018-06-17T16:11:03.148Z,1.87
2018-06-17T16:13:36.992Z,1.87
2018-06-17T16:16:11.103Z,2.40
2018-06-17T16:18:44.862Z,1.87
2018-06-17T16:21:13.306Z,2.30
2018-06-17T16:23:41.604Z,1.73
2018-06-17T16:26:09.779Z,2.10
2018-06-17T16:28:38.335Z,1.50
2018-06-17T16:31:06.629Z,2.40
2018-06-17T16:33:34.951Z,1.30
2018-06-17T16:36:03.321Z,2.30
2018-06-17T16:38:31.840Z,1.90
2018-06-17T16:41:00.985Z,1.70
2018-06-17T16:43:29.673Z,1.80
2018-06-17T16:45:57.981Z,1.97
2018-06-17T16:48:26.273Z,2.00
2018-06-17T16:51:00.430Z,1.67
2018-06-17T16:53:34.235Z,3.40
2018-06-17T16:56:09.066Z,2.50
2018-06-17T16:59:41.690Z,2.50
2018-06-17T17:02:10.320Z,2.60
2018-06-17T17:04:38.701Z,2.43
2018-06-17T17:07:07.095Z,2.43
2018-06-17T17:09:35.561Z,4.33
2018-06-17T17:12:05.110Z,3.20
2018-06-17T17:14:33.694Z,3.00
2018-06-17T17:17:02.917Z,2.70
2018-06-17T17:19:31.082Z,3.10
2018-06-17T17:22:00.009Z,2.77
2018-06-17T17:24:28.584Z,2.40
2018-06-17T17:26:57.237Z,2.63
2018-06-17T17:29:25.608Z,3.00
2018-06-17T17:32:00.232Z,3.07
2018-06-17T17:34:34.448Z,2.67
2018-06-17T17:37:08.827Z,2.20
2018-06-17T17:39:43.304Z,2.87
2018-06-17T17:42:12.138Z,2.23
2018-06-17T17:44:46.077Z,2.70
2018-06-17T17:47:19.953Z,2.73
2018-06-17T17:49:48.594Z,3.47
2018-06-17T17:52:17.140Z,3.33
2018-06-17T17:54:45.657Z,3.50
2018-06-17T17:57:14.581Z,3.00
2018-06-17T17:59:43.351Z,3.40
2018-06-17T18:02:12.781Z,2.70
2018-06-17T18:04:41.457Z,2.57
2018-06-17T18:07:10.351Z,2.97
2018-06-17T18:09:38.901Z,3.43
2018-06-17T18:12:08.070Z,2.67
2018-06-17T18:14:36.755Z,2.30
2018-06-17T18:17:05.408Z,2.80
2018-06-17T18:19:33.968Z,3.00
2018-06-17T18:22:02.805Z,2.70
2018-06-17T18:24:31.588Z,2.40
2018-06-17T18:28:04.309Z,2.67
2018-06-17T18:30:38.687Z,2.80
2018-06-17T18:33:13.338Z,2.90
2018-06-17T18:35:47.454Z,2.57
2018-06-17T18:38:16.186Z,2.50
2018-06-17T18:40:44.761Z,3.07
2018-06-17T18:43:13.175Z,3.40
2018-06-17T18:45:41.471Z,2.87
2018-06-17T18:48:09.799Z,2.60
2018-06-17T18:50:38.317Z,2.60
2018-06-17T18:53:06.980Z,2.50
2018-06-17T18:55:35.333Z,2.80
2018-06-17T18:58:03.696Z,2.30
2018-06-17T19:00:32.251Z,5.63
2018-06-17T19:03:00.556Z,3.87
2018-06-17T19:05:29.477Z,2.83
2018-06-17T19:07:57.800Z,2.90
2018-06-17T19:10:31.659Z,2.33
2018-06-17T19:13:11.294Z,2.47
2018-06-17T19:15:46.294Z,2.90
2018-06-17T19:18:15.100Z,3.43
2018-06-17T19:20:43.892Z,3.70
2018-06-17T19:23:12.761Z,2.97
2018-06-17T19:25:41.453Z,3.27
2018-06-17T19:28:09.910Z,2.67
2018-06-17T19:30:38.318Z,2.70
2018-06-17T19:33:15.832Z,4.20
2018-06-17T19:38:18.325Z,3.87
2018-06-17T19:40:47.004Z,3.20
2018-06-17T19:43:15.599Z,2.70
2018-06-17T19:45:43.815Z,2.77
2018-06-17T19:48:12.242Z,3.37
2018-06-17T19:50:46.130Z,3.07
2018-06-17T19:53:20.037Z,2.90
2018-06-17T19:55:54.236Z,2.53
2018-06-17T19:58:28.404Z,2.90
2018-06-17T20:00:59.667Z,2.47
2018-06-17T20:03:28.155Z,2.60
2018-06-17T20:05:59.657Z,2.77
2018-06-17T20:08:28.078Z,2.70
2018-06-17T20:10:56.468Z,1.97
2018-06-17T20:13:24.986Z,3.13
2018-06-17T20:15:53.342Z,2.20
2018-06-17T20:18:21.576Z,2.73
2018-06-17T20:20:50.030Z,2.27
2018-06-17T20:23:18.817Z,2.40
2018-06-17T20:25:47.102Z,2.50
2018-06-17T20:28:15.473Z,2.67
2018-06-17T20:30:43.844Z,2.87
2018-06-17T20:33:19.434Z,2.60
2018-06-17T20:35:53.386Z,2.73
2018-06-17T20:45:35.520Z,2.97
2018-06-17T20:48:03.819Z,2.53
2018-06-17T20:50:32.151Z,2.43
2018-06-17T20:53:00.499Z,3.03
2018-06-17T20:55:28.879Z,2.90
2018-06-17T20:57:57.205Z,3.53
2018-06-17T21:00:25.568Z,3.03
2018-06-17T21:02:53.903Z,2.20
2018-06-17T21:05:22.307Z,2.83
2018-06-17T21:07:50.563Z,2.90
2018-06-17T21:10:19.111Z,2.60
2018-06-17T21:12:47.456Z,3.10
2018-06-17T21:15:16.578Z,2.97
2018-06-17T21:17:45.605Z,2.97
2018-06-17T21:20:19.746Z,3.50
2018-06-17T21:22:53.774Z,2.87
2018-06-17T21:25:27.819Z,2.85
2018-06-17T21:27:57.757Z,2.23
2018-06-17T21:30:26.396Z,2.67
2018-06-17T21:32:54.806Z,2.80
2018-06-17T21:35:23.368Z,3.37
2018-06-17T21:37:51.708Z,2.90
2018-06-17T21:40:19.941Z,3.80
2018-06-17T21:42:48.267Z,3.97
2018-06-17T21:45:16.494Z,3.43
2018-06-17T21:47:44.762Z,2.80
2018-06-17T21:50:13.052Z,2.67
2018-06-17T21:52:41.157Z,3.37
2018-06-17T21:55:09.381Z,2.47
2018-06-17T21:57:37.654Z,2.80
2018-06-17T22:00:07.945Z,2.20
2018-06-17T22:02:41.099Z,3.97
2018-06-17T22:05:09.194Z,2.90
2018-06-17T22:07:42.946Z,2.57
2018-06-17T22:10:16.998Z,2.57
2018-06-17T22:12:51.114Z,2.30
2018-06-17T22:15:24.868Z,2.50
2018-06-17T22:17:54.220Z,2.60
2018-06-17T22:26:44.701Z,2.80
2018-06-17T22:29:13.517Z,2.50
2018-06-17T22:31:41.786Z,2.27
2018-06-17T22:34:11.565Z,2.57
2018-06-17T22:37:00.803Z,2.70
2018-06-17T22:39:39.821Z,2.90
2018-06-17T22:42:24.073Z,2.90
2018-06-17T22:45:14.367Z,4.10
2018-06-17T22:51:12.611Z,2.87
2018-06-17T22:53:59.687Z,3.07
